sensor_id;sensor_type;location;lat;lon;timestamp;P1;durP1;ratioP1;P2;durP2;ratioP2
10633;SDS011;5365;51.640;8.106;2023-04-24T00:02:48;191.83;;;57.87;;
10633;SDS011;5365;51.640;8.106;2023-04-24T00:05:48;194.07;;;59.00;;
10633;SDS011;5365;51.640;8.106;2023-04-24T00:08:48;193.10;;;56.53;;
10633;SDS011;5365;51.640;8.106;2023-04-24T00:11:48;193.30;;;57.53;;
10633;SDS011;5365;51.640;8.106;2023-04-24T00:14:49;193.20;;;57.23;;
10633;SDS011;5365;51.640;8.106;2023-04-24T00:17:49;194.97;;;57.00;;
10633;SDS011;5365;51.640;8.106;2023-04-24T00:20:49;193.70;;;57.57;;
10633;SDS011;5365;51.640;8.106;2023-04-24T00:23:49;192.67;;;56.37;;
10633;SDS011;5365;51.640;8.106;2023-04-24T00:26:50;190.07;;;54.63;;
10633;SDS011;5365;51.640;8.106;2023-04-24T00:29:50;191.97;;;56.57;;
10633;SDS011;5365;51.640;8.106;2023-04-24T00:32:50;189.17;;;54.07;;
10633;SDS011;5365;51.640;8.106;2023-04-24T00:35:50;189.60;;;55.37;;
10633;SDS011;5365;51.640;8.106;2023-04-24T00:38:50;188.83;;;54.40;;
10633;SDS011;5365;51.640;8.106;2023-04-24T00:41:51;196.50;;;59.43;;
10633;SDS011;5365;51.640;8.106;2023-04-24T00:44:51;209.80;;;65.80;;
10633;SDS011;5365;51.640;8.106;2023-04-24T00:47:52;211.73;;;66.07;;
10633;SDS011;5365;51.640;8.106;2023-04-24T00:50:52;210.50;;;66.37;;
10633;SDS011;5365;51.640;8.106;2023-04-24T00:53:52;219.07;;;76.13;;
10633;SDS011;5365;51.640;8.106;2023-04-24T00:56:52;211.77;;;70.63;;
10633;SDS011;5365;51.640;8.106;2023-04-24T00:59:52;219.80;;;76.53;;
10633;SDS011;5365;51.640;8.106;2023-04-24T01:02:53;225.47;;;82.10;;
10633;SDS011;5365;51.640;8.106;2023-04-24T01:05:54;220.10;;;75.90;;
10633;SDS011;5365;51.640;8.106;2023-04-24T01:08:54;215.60;;;73.67;;
10633;SDS011;5365;51.640;8.106;2023-04-24T01:11:55;220.17;;;77.27;;
10633;SDS011;5365;51.640;8.106;2023-04-24T01:14:56;220.90;;;78.83;;
10633;SDS011;5365;51.640;8.106;2023-04-24T01:17:56;220.87;;;78.77;;
10633;SDS011;5365;51.640;8.106;2023-04-24T01:20:57;213.47;;;70.93;;
10633;SDS011;5365;51.640;8.106;2023-04-24T01:23:57;219.73;;;80.73;;
10633;SDS011;5365;51.640;8.106;2023-04-24T01:26:58;219.43;;;79.37;;
10633;SDS011;5365;51.640;8.106;2023-04-24T01:29:58;221.43;;;82.47;;
10633;SDS011;5365;51.640;8.106;2023-04-24T01:32:58;223.90;;;83.23;;
10633;SDS011;5365;51.640;8.106;2023-04-24T01:35:59;225.40;;;85.93;;
10633;SDS011;5365;51.640;8.106;2023-04-24T01:38:59;222.10;;;84.23;;
10633;SDS011;5365;51.640;8.106;2023-04-24T01:42:00;223.97;;;84.73;;
10633;SDS011;5365;51.640;8.106;2023-04-24T01:45:02;217.10;;;77.87;;
10633;SDS011;5365;51.640;8.106;2023-04-24T01:48:03;213.20;;;74.13;;
10633;SDS011;5365;51.640;8.106;2023-04-24T01:51:03;222.17;;;83.87;;
10633;SDS011;5365;51.640;8.106;2023-04-24T01:54:04;224.10;;;85.90;;
10633;SDS011;5365;51.640;8.106;2023-04-24T01:57:05;223.03;;;84.80;;
10633;SDS011;5365;51.640;8.106;2023-04-24T02:00:05;223.90;;;86.33;;
10633;SDS011;5365;51.640;8.106;2023-04-24T02:03:07;220.47;;;81.73;;
10633;SDS011;5365;51.640;8.106;2023-04-24T02:06:07;218.87;;;81.43;;
10633;SDS011;5365;51.640;8.106;2023-04-24T02:09:07;217.63;;;78.17;;
10633;SDS011;5365;51.640;8.106;2023-04-24T02:12:07;222.93;;;85.80;;
10633;SDS011;5365;51.640;8.106;2023-04-24T02:15:08;224.13;;;86.70;;
10633;SDS011;5365;51.640;8.106;2023-04-24T02:18:08;224.57;;;85.03;;
10633;SDS011;5365;51.640;8.106;2023-04-24T02:21:09;225.13;;;88.37;;
10633;SDS011;5365;51.640;8.106;2023-04-24T02:24:09;226.17;;;86.20;;
10633;SDS011;5365;51.640;8.106;2023-04-24T02:27:09;225.87;;;88.33;;
10633;SDS011;5365;51.640;8.106;2023-04-24T02:30:10;219.30;;;82.67;;
10633;SDS011;5365;51.640;8.106;2023-04-24T02:33:11;223.57;;;85.10;;
10633;SDS011;5365;51.640;8.106;2023-04-24T02:36:11;224.70;;;88.03;;
10633;SDS011;5365;51.640;8.106;2023-04-24T02:39:11;221.20;;;81.50;;
10633;SDS011;5365;51.640;8.106;2023-04-24T02:42:13;225.27;;;85.87;;
10633;SDS011;5365;51.640;8.106;2023-04-24T02:45:13;220.73;;;82.33;;
10633;SDS011;5365;51.640;8.106;2023-04-24T02:48:13;222.33;;;84.60;;
10633;SDS011;5365;51.640;8.106;2023-04-24T02:51:13;223.53;;;86.13;;
10633;SDS011;5365;51.640;8.106;2023-04-24T02:54:14;212.77;;;74.40;;
10633;SDS011;5365;51.640;8.106;2023-04-24T02:57:14;212.17;;;71.33;;
10633;SDS011;5365;51.640;8.106;2023-04-24T03:00:15;220.77;;;82.03;;
10633;SDS011;5365;51.640;8.106;2023-04-24T03:03:15;213.33;;;71.90;;
10633;SDS011;5365;51.640;8.106;2023-04-24T03:06:15;214.80;;;77.23;;
10633;SDS011;5365;51.640;8.106;2023-04-24T03:09:15;224.70;;;89.47;;
10633;SDS011;5365;51.640;8.106;2023-04-24T03:12:16;223.53;;;83.80;;
10633;SDS011;5365;51.640;8.106;2023-04-24T03:15:17;220.90;;;82.90;;
10633;SDS011;5365;51.640;8.106;2023-04-24T03:18:18;226.23;;;88.97;;
10633;SDS011;5365;51.640;8.106;2023-04-24T03:21:18;216.17;;;76.03;;
10633;SDS011;5365;51.640;8.106;2023-04-24T03:24:18;222.20;;;82.87;;
10633;SDS011;5365;51.640;8.106;2023-04-24T03:27:18;221.73;;;81.63;;
10633;SDS011;5365;51.640;8.106;2023-04-24T03:30:19;214.93;;;75.30;;
10633;SDS011;5365;51.640;8.106;2023-04-24T03:33:19;223.10;;;83.23;;
10633;SDS011;5365;51.640;8.106;2023-04-24T03:36:19;217.60;;;76.90;;
10633;SDS011;5365;51.640;8.106;2023-04-24T03:39:20;214.27;;;73.53;;
10633;SDS011;5365;51.640;8.106;2023-04-24T03:42:20;218.10;;;79.63;;
10633;SDS011;5365;51.640;8.106;2023-04-24T03:45:20;220.53;;;80.37;;
10633;SDS011;5365;51.640;8.106;2023-04-24T03:48:21;213.17;;;71.23;;
10633;SDS011;5365;51.640;8.106;2023-04-24T03:51:21;224.37;;;85.53;;
10633;SDS011;5365;51.640;8.106;2023-04-24T03:54:21;212.50;;;68.80;;
10633;SDS011;5365;51.640;8.106;2023-04-24T03:57:21;216.97;;;76.00;;
10633;SDS011;5365;51.640;8.106;2023-04-24T04:00:22;224.57;;;85.23;;
10633;SDS011;5365;51.640;8.106;2023-04-24T04:03:22;221.90;;;83.23;;
10633;SDS011;5365;51.640;8.106;2023-04-24T04:06:22;224.50;;;87.47;;
10633;SDS011;5365;51.640;8.106;2023-04-24T04:09:22;226.07;;;86.93;;
10633;SDS011;5365;51.640;8.106;2023-04-24T04:12:23;231.33;;;88.17;;
10633;SDS011;5365;51.640;8.106;2023-04-24T04:15:23;228.00;;;82.17;;
10633;SDS011;5365;51.640;8.106;2023-04-24T04:18:23;232.73;;;91.63;;
10633;SDS011;5365;51.640;8.106;2023-04-24T04:21:23;230.63;;;86.07;;
10633;SDS011;5365;51.640;8.106;2023-04-24T04:24:24;232.47;;;89.33;;
10633;SDS011;5365;51.640;8.106;2023-04-24T04:27:25;229.07;;;85.03;;
10633;SDS011;5365;51.640;8.106;2023-04-24T04:30:25;233.17;;;91.37;;
10633;SDS011;5365;51.640;8.106;2023-04-24T04:33:26;233.23;;;91.77;;
10633;SDS011;5365;51.640;8.106;2023-04-24T04:36:26;233.70;;;92.83;;
10633;SDS011;5365;51.640;8.106;2023-04-24T04:39:26;237.83;;;93.20;;
10633;SDS011;5365;51.640;8.106;2023-04-24T04:42:28;235.40;;;90.60;;
10633;SDS011;5365;51.640;8.106;2023-04-24T04:45:28;238.10;;;93.40;;
10633;SDS011;5365;51.640;8.106;2023-04-24T04:48:28;246.27;;;97.57;;
10633;SDS011;5365;51.640;8.106;2023-04-24T04:51:28;237.93;;;92.90;;
10633;SDS011;5365;51.640;8.106;2023-04-24T04:54:29;239.33;;;92.97;;
10633;SDS011;5365;51.640;8.106;2023-04-24T04:57:29;231.80;;;88.33;;
10633;SDS011;5365;51.640;8.106;2023-04-24T05:00:30;241.40;;;96.70;;
10633;SDS011;5365;51.640;8.106;2023-04-24T05:03:35;235.57;;;90.83;;
10633;SDS011;5365;51.640;8.106;2023-04-24T05:06:35;239.90;;;98.17;;
10633;SDS011;5365;51.640;8.106;2023-04-24T05:09:36;241.80;;;99.80;;
10633;SDS011;5365;51.640;8.106;2023-04-24T05:12:36;238.73;;;96.73;;
10633;SDS011;5365;51.640;8.106;2023-04-24T05:15:36;239.77;;;92.83;;
10633;SDS011;5365;51.640;8.106;2023-04-24T05:18:37;233.17;;;89.23;;
10633;SDS011;5365;51.640;8.106;2023-04-24T05:21:37;240.27;;;95.23;;
10633;SDS011;5365;51.640;8.106;2023-04-24T05:24:37;238.17;;;91.37;;
10633;SDS011;5365;51.640;8.106;2023-04-24T05:27:38;238.43;;;93.10;;
10633;SDS011;5365;51.640;8.106;2023-04-24T05:30:38;227.13;;;82.10;;
10633;SDS011;5365;51.640;8.106;2023-04-24T05:33:38;237.67;;;91.80;;
10633;SDS011;5365;51.640;8.106;2023-04-24T05:36:38;232.80;;;92.27;;
10633;SDS011;5365;51.640;8.106;2023-04-24T05:39:39;231.50;;;91.83;;
10633;SDS011;5365;51.640;8.106;2023-04-24T05:42:40;234.63;;;94.67;;
10633;SDS011;5365;51.640;8.106;2023-04-24T05:45:41;219.17;;;72.30;;
10633;SDS011;5365;51.640;8.106;2023-04-24T05:48:41;207.85;;;64.65;;
10633;SDS011;5365;51.640;8.106;2023-04-24T05:51:41;221.40;;;75.03;;
10633;SDS011;5365;51.640;8.106;2023-04-24T05:54:41;216.47;;;70.87;;
10633;SDS011;5365;51.640;8.106;2023-04-24T05:57:41;225.17;;;82.13;;
10633;SDS011;5365;51.640;8.106;2023-04-24T06:00:42;229.70;;;87.47;;
10633;SDS011;5365;51.640;8.106;2023-04-24T06:03:44;226.70;;;84.17;;
10633;SDS011;5365;51.640;8.106;2023-04-24T06:06:44;230.47;;;89.63;;
10633;SDS011;5365;51.640;8.106;2023-04-24T06:09:45;217.47;;;75.43;;
10633;SDS011;5365;51.640;8.106;2023-04-24T06:12:45;232.80;;;83.13;;
10633;SDS011;5365;51.640;8.106;2023-04-24T06:15:46;232.83;;;89.57;;
10633;SDS011;5365;51.640;8.106;2023-04-24T06:18:46;229.77;;;87.18;;
10633;SDS011;5365;51.640;8.106;2023-04-24T06:21:47;231.07;;;87.40;;
10633;SDS011;5365;51.640;8.106;2023-04-24T06:24:47;223.60;;;80.83;;
10633;SDS011;5365;51.640;8.106;2023-04-24T06:27:48;224.93;;;81.70;;
10633;SDS011;5365;51.640;8.106;2023-04-24T06:30:48;225.53;;;84.37;;
10633;SDS011;5365;51.640;8.106;2023-04-24T06:33:49;223.33;;;80.80;;
10633;SDS011;5365;51.640;8.106;2023-04-24T06:36:49;226.83;;;83.70;;
10633;SDS011;5365;51.640;8.106;2023-04-24T06:39:49;232.23;;;93.50;;
10633;SDS011;5365;51.640;8.106;2023-04-24T06:42:50;222.67;;;82.30;;
10633;SDS011;5365;51.640;8.106;2023-04-24T06:45:50;222.60;;;80.73;;
10633;SDS011;5365;51.640;8.106;2023-04-24T06:48:50;221.57;;;80.47;;
10633;SDS011;5365;51.640;8.106;2023-04-24T06:51:50;222.37;;;82.27;;
10633;SDS011;5365;51.640;8.106;2023-04-24T06:54:50;221.70;;;81.63;;
10633;SDS011;5365;51.640;8.106;2023-04-24T06:57:51;220.68;;;80.03;;
10633;SDS011;5365;51.640;8.106;2023-04-24T07:00:51;224.83;;;82.37;;
10633;SDS011;5365;51.640;8.106;2023-04-24T07:03:51;225.77;;;82.03;;
10633;SDS011;5365;51.640;8.106;2023-04-24T07:06:52;222.80;;;82.27;;
10633;SDS011;5365;51.640;8.106;2023-04-24T07:09:56;222.57;;;82.13;;
10633;SDS011;5365;51.640;8.106;2023-04-24T07:12:56;220.67;;;78.37;;
10633;SDS011;5365;51.640;8.106;2023-04-24T07:15:56;222.40;;;81.43;;
10633;SDS011;5365;51.640;8.106;2023-04-24T07:18:57;224.70;;;86.43;;
10633;SDS011;5365;51.640;8.106;2023-04-24T07:21:57;225.23;;;88.37;;
10633;SDS011;5365;51.640;8.106;2023-04-24T07:24:58;226.13;;;87.00;;
10633;SDS011;5365;51.640;8.106;2023-04-24T07:27:58;220.63;;;82.80;;
10633;SDS011;5365;51.640;8.106;2023-04-24T07:30:58;222.40;;;84.23;;
10633;SDS011;5365;51.640;8.106;2023-04-24T07:34:00;222.73;;;84.17;;
10633;SDS011;5365;51.640;8.106;2023-04-24T07:37:01;222.80;;;79.27;;
10633;SDS011;5365;51.640;8.106;2023-04-24T07:40:01;220.83;;;77.73;;
10633;SDS011;5365;51.640;8.106;2023-04-24T07:43:02;218.83;;;78.80;;
10633;SDS011;5365;51.640;8.106;2023-04-24T07:46:02;220.87;;;81.57;;
10633;SDS011;5365;51.640;8.106;2023-04-24T07:49:02;223.20;;;83.60;;
10633;SDS011;5365;51.640;8.106;2023-04-24T07:52:04;223.80;;;84.80;;
10633;SDS011;5365;51.640;8.106;2023-04-24T07:55:04;220.47;;;81.33;;
10633;SDS011;5365;51.640;8.106;2023-04-24T07:58:05;223.57;;;84.10;;
10633;SDS011;5365;51.640;8.106;2023-04-24T08:01:06;220.17;;;79.63;;
10633;SDS011;5365;51.640;8.106;2023-04-24T08:04:06;223.83;;;84.43;;
10633;SDS011;5365;51.640;8.106;2023-04-24T08:07:06;224.50;;;86.23;;
10633;SDS011;5365;51.640;8.106;2023-04-24T08:10:07;220.33;;;82.53;;
10633;SDS011;5365;51.640;8.106;2023-04-24T08:13:07;221.47;;;81.70;;
10633;SDS011;5365;51.640;8.106;2023-04-24T08:16:07;218.93;;;80.63;;
10633;SDS011;5365;51.640;8.106;2023-04-24T08:19:08;222.80;;;85.37;;
10633;SDS011;5365;51.640;8.106;2023-04-24T08:22:08;219.57;;;82.30;;
10633;SDS011;5365;51.640;8.106;2023-04-24T08:25:08;222.00;;;84.80;;
10633;SDS011;5365;51.640;8.106;2023-04-24T08:28:09;222.10;;;83.90;;
10633;SDS011;5365;51.640;8.106;2023-04-24T08:31:10;221.03;;;83.33;;
10633;SDS011;5365;51.640;8.106;2023-04-24T08:34:10;220.20;;;79.27;;
10633;SDS011;5365;51.640;8.106;2023-04-24T08:37:10;219.83;;;82.07;;
10633;SDS011;5365;51.640;8.106;2023-04-24T08:40:14;221.97;;;85.77;;
10633;SDS011;5365;51.640;8.106;2023-04-24T08:43:15;224.53;;;86.17;;
10633;SDS011;5365;51.640;8.106;2023-04-24T08:46:16;219.80;;;82.33;;
10633;SDS011;5365;51.640;8.106;2023-04-24T08:49:16;218.17;;;80.03;;
10633;SDS011;5365;51.640;8.106;2023-04-24T08:52:17;220.73;;;82.60;;
10633;SDS011;5365;51.640;8.106;2023-04-24T08:55:18;221.17;;;82.87;;
10633;SDS011;5365;51.640;8.106;2023-04-24T08:58:20;217.37;;;77.20;;
10633;SDS011;5365;51.640;8.106;2023-04-24T09:01:20;221.33;;;82.93;;
10633;SDS011;5365;51.640;8.106;2023-04-24T09:04:21;218.00;;;78.97;;
10633;SDS011;5365;51.640;8.106;2023-04-24T09:07:24;222.10;;;82.30;;
10633;SDS011;5365;51.640;8.106;2023-04-24T09:10:25;221.07;;;82.23;;
10633;SDS011;5365;51.640;8.106;2023-04-24T09:13:26;219.87;;;83.20;;
10633;SDS011;5365;51.640;8.106;2023-04-24T09:16:26;220.80;;;83.40;;
10633;SDS011;5365;51.640;8.106;2023-04-24T09:19:26;236.53;;;82.10;;
10633;SDS011;5365;51.640;8.106;2023-04-24T09:22:29;223.73;;;88.10;;
10633;SDS011;5365;51.640;8.106;2023-04-24T09:25:33;222.60;;;82.77;;
10633;SDS011;5365;51.640;8.106;2023-04-24T09:28:37;220.17;;;81.63;;
10633;SDS011;5365;51.640;8.106;2023-04-24T09:31:37;221.73;;;83.43;;
10633;SDS011;5365;51.640;8.106;2023-04-24T09:34:37;215.70;;;74.30;;
10633;SDS011;5365;51.640;8.106;2023-04-24T09:37:42;222.43;;;84.47;;
10633;SDS011;5365;51.640;8.106;2023-04-24T09:40:42;221.17;;;80.83;;
10633;SDS011;5365;51.640;8.106;2023-04-24T09:43:42;221.03;;;81.70;;
10633;SDS011;5365;51.640;8.106;2023-04-24T09:46:44;222.13;;;83.53;;
10633;SDS011;5365;51.640;8.106;2023-04-24T09:49:44;222.37;;;85.73;;
10633;SDS011;5365;51.640;8.106;2023-04-24T09:52:45;220.50;;;81.87;;
10633;SDS011;5365;51.640;8.106;2023-04-24T09:55:46;223.70;;;85.07;;
10633;SDS011;5365;51.640;8.106;2023-04-24T09:58:48;224.30;;;84.77;;
10633;SDS011;5365;51.640;8.106;2023-04-24T10:01:48;221.30;;;81.87;;
10633;SDS011;5365;51.640;8.106;2023-04-24T10:04:55;219.37;;;78.77;;
10633;SDS011;5365;51.640;8.106;2023-04-24T10:11:00;220.88;;;82.03;;
10633;SDS011;5365;51.640;8.106;2023-04-24T10:14:00;221.77;;;78.87;;
10633;SDS011;5365;51.640;8.106;2023-04-24T10:17:01;221.33;;;80.73;;
10633;SDS011;5365;51.640;8.106;2023-04-24T10:20:01;217.73;;;75.57;;
10633;SDS011;5365;51.640;8.106;2023-04-24T10:23:02;216.67;;;76.57;;
10633;SDS011;5365;51.640;8.106;2023-04-24T10:26:03;220.27;;;76.77;;
10633;SDS011;5365;51.640;8.106;2023-04-24T10:29:03;220.83;;;78.10;;
10633;SDS011;5365;51.640;8.106;2023-04-24T10:32:06;218.70;;;76.70;;
10633;SDS011;5365;51.640;8.106;2023-04-24T10:35:07;228.63;;;86.70;;
10633;SDS011;5365;51.640;8.106;2023-04-24T10:38:08;224.73;;;82.60;;
10633;SDS011;5365;51.640;8.106;2023-04-24T10:41:10;224.97;;;81.93;;
10633;SDS011;5365;51.640;8.106;2023-04-24T10:44:16;232.67;;;90.30;;
10633;SDS011;5365;51.640;8.106;2023-04-24T10:47:16;226.00;;;84.77;;
10633;SDS011;5365;51.640;8.106;2023-04-24T10:50:16;228.23;;;85.47;;
10633;SDS011;5365;51.640;8.106;2023-04-24T10:53:21;231.93;;;90.90;;
10633;SDS011;5365;51.640;8.106;2023-04-24T10:56:26;228.70;;;87.17;;
10633;SDS011;5365;51.640;8.106;2023-04-24T10:59:27;227.63;;;87.60;;
10633;SDS011;5365;51.640;8.106;2023-04-24T11:02:35;229.10;;;86.00;;
10633;SDS011;5365;51.640;8.106;2023-04-24T11:05:52;223.10;;;82.40;;
10633;SDS011;5365;51.640;8.106;2023-04-24T11:08:52;221.00;;;78.47;;
10633;SDS011;5365;51.640;8.106;2023-04-24T11:15:10;229.83;;;90.20;;
10633;SDS011;5365;51.640;8.106;2023-04-24T11:18:14;222.47;;;80.20;;
10633;SDS011;5365;51.640;8.106;2023-04-24T11:21:18;223.30;;;80.77;;
10633;SDS011;5365;51.640;8.106;2023-04-24T11:27:22;245.30;;;103.73;;
10633;SDS011;5365;51.640;8.106;2023-04-24T11:30:22;275.37;;;161.67;;
10633;SDS011;5365;51.640;8.106;2023-04-24T11:33:22;253.57;;;102.80;;
10633;SDS011;5365;51.640;8.106;2023-04-24T11:36:22;274.57;;;121.30;;
10633;SDS011;5365;51.640;8.106;2023-04-24T11:39:23;255.23;;;105.77;;
10633;SDS011;5365;51.640;8.106;2023-04-24T11:42:23;275.17;;;121.60;;
10633;SDS011;5365;51.640;8.106;2023-04-24T11:45:26;292.30;;;184.80;;
10633;SDS011;5365;51.640;8.106;2023-04-24T11:48:26;288.97;;;185.67;;
10633;SDS011;5365;51.640;8.106;2023-04-24T11:51:27;290.97;;;145.57;;
10633;SDS011;5365;51.640;8.106;2023-04-24T11:54:27;281.13;;;136.17;;
10633;SDS011;5365;51.640;8.106;2023-04-24T11:57:28;288.20;;;141.07;;
10633;SDS011;5365;51.640;8.106;2023-04-24T12:00:33;285.67;;;129.90;;
10633;SDS011;5365;51.640;8.106;2023-04-24T12:03:36;282.03;;;125.47;;
10633;SDS011;5365;51.640;8.106;2023-04-24T12:06:36;286.67;;;132.73;;
10633;SDS011;5365;51.640;8.106;2023-04-24T12:09:48;294.00;;;163.00;;
10633;SDS011;5365;51.640;8.106;2023-04-24T12:12:48;282.93;;;124.57;;
10633;SDS011;5365;51.640;8.106;2023-04-24T12:15:50;285.30;;;130.97;;
10633;SDS011;5365;51.640;8.106;2023-04-24T12:18:50;289.43;;;131.43;;
10633;SDS011;5365;51.640;8.106;2023-04-24T12:22:01;269.37;;;104.13;;
10633;SDS011;5365;51.640;8.106;2023-04-24T12:25:02;274.30;;;109.77;;
10633;SDS011;5365;51.640;8.106;2023-04-24T12:31:03;276.98;;;114.55;;
10633;SDS011;5365;51.640;8.106;2023-04-24T12:34:03;284.40;;;120.50;;
10633;SDS011;5365;51.640;8.106;2023-04-24T12:37:10;280.87;;;116.17;;
10633;SDS011;5365;51.640;8.106;2023-04-24T12:40:11;296.40;;;169.17;;
10633;SDS011;5365;51.640;8.106;2023-04-24T12:43:13;286.43;;;141.50;;
10633;SDS011;5365;51.640;8.106;2023-04-24T12:46:13;294.57;;;157.47;;
10633;SDS011;5365;51.640;8.106;2023-04-24T12:49:13;300.20;;;175.50;;
10633;SDS011;5365;51.640;8.106;2023-04-24T12:52:14;292.53;;;157.87;;
10633;SDS011;5365;51.640;8.106;2023-04-24T12:55:14;275.93;;;124.87;;
10633;SDS011;5365;51.640;8.106;2023-04-24T12:58:14;292.00;;;177.70;;
10633;SDS011;5365;51.640;8.106;2023-04-24T13:01:15;293.50;;;164.53;;
10633;SDS011;5365;51.640;8.106;2023-04-24T13:04:15;301.33;;;166.13;;
10633;SDS011;5365;51.640;8.106;2023-04-24T13:07:17;297.20;;;168.00;;
10633;SDS011;5365;51.640;8.106;2023-04-24T13:10:17;285.97;;;171.53;;
10633;SDS011;5365;51.640;8.106;2023-04-24T13:13:17;280.90;;;141.00;;
10633;SDS011;5365;51.640;8.106;2023-04-24T13:16:17;270.37;;;136.23;;
10633;SDS011;5365;51.640;8.106;2023-04-24T13:19:18;263.00;;;113.27;;
10633;SDS011;5365;51.640;8.106;2023-04-24T13:22:18;269.73;;;118.47;;
10633;SDS011;5365;51.640;8.106;2023-04-24T13:25:18;274.93;;;146.40;;
10633;SDS011;5365;51.640;8.106;2023-04-24T13:28:20;270.43;;;135.93;;
10633;SDS011;5365;51.640;8.106;2023-04-24T13:31:20;289.83;;;166.23;;
10633;SDS011;5365;51.640;8.106;2023-04-24T13:34:21;296.60;;;178.47;;
10633;SDS011;5365;51.640;8.106;2023-04-24T13:37:21;280.27;;;147.90;;
10633;SDS011;5365;51.640;8.106;2023-04-24T13:40:22;280.60;;;165.93;;
10633;SDS011;5365;51.640;8.106;2023-04-24T13:43:22;277.80;;;166.00;;
10633;SDS011;5365;51.640;8.106;2023-04-24T13:46:23;269.67;;;144.67;;
10633;SDS011;5365;51.640;8.106;2023-04-24T13:49:23;278.73;;;148.53;;
10633;SDS011;5365;51.640;8.106;2023-04-24T13:52:26;280.60;;;165.53;;
10633;SDS011;5365;51.640;8.106;2023-04-24T13:55:26;268.43;;;131.20;;
10633;SDS011;5365;51.640;8.106;2023-04-24T13:58:26;271.43;;;131.77;;
10633;SDS011;5365;51.640;8.106;2023-04-24T14:01:27;278.77;;;159.23;;
10633;SDS011;5365;51.640;8.106;2023-04-24T14:04:27;273.67;;;149.57;;
10633;SDS011;5365;51.640;8.106;2023-04-24T14:07:27;264.60;;;126.73;;
10633;SDS011;5365;51.640;8.106;2023-04-24T14:10:28;275.57;;;159.33;;
10633;SDS011;5365;51.640;8.106;2023-04-24T14:13:28;261.00;;;119.73;;
10633;SDS011;5365;51.640;8.106;2023-04-24T14:16:28;256.17;;;107.80;;
10633;SDS011;5365;51.640;8.106;2023-04-24T14:19:29;238.73;;;80.33;;
10633;SDS011;5365;51.640;8.106;2023-04-24T14:22:29;253.67;;;113.00;;
10633;SDS011;5365;51.640;8.106;2023-04-24T14:25:29;261.90;;;112.70;;
10633;SDS011;5365;51.640;8.106;2023-04-24T14:28:30;237.00;;;86.97;;
10633;SDS011;5365;51.640;8.106;2023-04-24T14:31:31;244.97;;;95.07;;
10633;SDS011;5365;51.640;8.106;2023-04-24T14:34:31;253.07;;;123.80;;
10633;SDS011;5365;51.640;8.106;2023-04-24T14:37:32;255.03;;;125.57;;
10633;SDS011;5365;51.640;8.106;2023-04-24T14:40:32;261.27;;;126.17;;
10633;SDS011;5365;51.640;8.106;2023-04-24T14:43:32;254.07;;;122.13;;
10633;SDS011;5365;51.640;8.106;2023-04-24T14:46:34;260.13;;;125.00;;
10633;SDS011;5365;51.640;8.106;2023-04-24T14:49:35;253.20;;;114.57;;
10633;SDS011;5365;51.640;8.106;2023-04-24T14:52:35;266.83;;;140.67;;
10633;SDS011;5365;51.640;8.106;2023-04-24T14:55:35;266.90;;;143.83;;
10633;SDS011;5365;51.640;8.106;2023-04-24T14:58:36;256.50;;;124.43;;
10633;SDS011;5365;51.640;8.106;2023-04-24T15:01:36;269.90;;;150.23;;
10633;SDS011;5365;51.640;8.106;2023-04-24T15:04:36;273.23;;;158.23;;
10633;SDS011;5365;51.640;8.106;2023-04-24T15:07:37;275.60;;;164.50;;
10633;SDS011;5365;51.640;8.106;2023-04-24T15:10:37;279.90;;;166.00;;
10633;SDS011;5365;51.640;8.106;2023-04-24T15:13:38;282.20;;;167.50;;
10633;SDS011;5365;51.640;8.106;2023-04-24T15:16:38;274.77;;;155.77;;
10633;SDS011;5365;51.640;8.106;2023-04-24T15:19:38;254.27;;;126.93;;
10633;SDS011;5365;51.640;8.106;2023-04-24T15:22:38;265.88;;;140.45;;
10633;SDS011;5365;51.640;8.106;2023-04-24T15:25:38;274.50;;;143.80;;
10633;SDS011;5365;51.640;8.106;2023-04-24T15:28:39;262.50;;;138.00;;
10633;SDS011;5365;51.640;8.106;2023-04-24T15:31:39;259.47;;;126.80;;
10633;SDS011;5365;51.640;8.106;2023-04-24T15:34:40;253.77;;;121.37;;
10633;SDS011;5365;51.640;8.106;2023-04-24T15:37:40;255.37;;;120.20;;
10633;SDS011;5365;51.640;8.106;2023-04-24T15:40:40;253.60;;;114.07;;
10633;SDS011;5365;51.640;8.106;2023-04-24T15:43:40;269.70;;;148.43;;
10633;SDS011;5365;51.640;8.106;2023-04-24T15:46:41;259.57;;;128.97;;
10633;SDS011;5365;51.640;8.106;2023-04-24T15:49:41;254.55;;;118.35;;
10633;SDS011;5365;51.640;8.106;2023-04-24T15:52:42;258.23;;;129.30;;
10633;SDS011;5365;51.640;8.106;2023-04-24T15:55:42;265.57;;;141.77;;
10633;SDS011;5365;51.640;8.106;2023-04-24T15:58:42;270.83;;;143.60;;
10633;SDS011;5365;51.640;8.106;2023-04-24T16:01:43;259.30;;;127.43;;
10633;SDS011;5365;51.640;8.106;2023-04-24T16:04:44;255.73;;;125.63;;
10633;SDS011;5365;51.640;8.106;2023-04-24T16:07:45;271.87;;;151.07;;
10633;SDS011;5365;51.640;8.106;2023-04-24T16:10:45;273.57;;;156.53;;
10633;SDS011;5365;51.640;8.106;2023-04-24T16:13:46;267.17;;;133.27;;
10633;SDS011;5365;51.640;8.106;2023-04-24T16:16:46;273.57;;;147.63;;
10633;SDS011;5365;51.640;8.106;2023-04-24T16:19:46;267.47;;;147.33;;
10633;SDS011;5365;51.640;8.106;2023-04-24T16:22:46;266.73;;;145.93;;
10633;SDS011;5365;51.640;8.106;2023-04-24T16:25:46;268.17;;;146.67;;
10633;SDS011;5365;51.640;8.106;2023-04-24T16:28:47;276.80;;;148.23;;
10633;SDS011;5365;51.640;8.106;2023-04-24T16:31:47;254.50;;;121.80;;
10633;SDS011;5365;51.640;8.106;2023-04-24T16:34:47;259.17;;;131.53;;
10633;SDS011;5365;51.640;8.106;2023-04-24T16:37:47;259.37;;;134.13;;
10633;SDS011;5365;51.640;8.106;2023-04-24T16:40:48;256.73;;;126.33;;
10633;SDS011;5365;51.640;8.106;2023-04-24T16:43:48;262.40;;;136.30;;
10633;SDS011;5365;51.640;8.106;2023-04-24T16:46:49;270.30;;;146.63;;
10633;SDS011;5365;51.640;8.106;2023-04-24T16:49:49;270.37;;;146.47;;
10633;SDS011;5365;51.640;8.106;2023-04-24T16:52:49;271.07;;;147.37;;
10633;SDS011;5365;51.640;8.106;2023-04-24T16:55:50;274.37;;;153.97;;
10633;SDS011;5365;51.640;8.106;2023-04-24T16:58:50;271.13;;;148.17;;
10633;SDS011;5365;51.640;8.106;2023-04-24T17:01:50;265.43;;;129.40;;
10633;SDS011;5365;51.640;8.106;2023-04-24T17:04:50;271.42;;;147.38;;
10633;SDS011;5365;51.640;8.106;2023-04-24T17:07:50;272.37;;;141.17;;
10633;SDS011;5365;51.640;8.106;2023-04-24T17:10:51;280.40;;;166.93;;
10633;SDS011;5365;51.640;8.106;2023-04-24T17:13:51;280.63;;;169.60;;
10633;SDS011;5365;51.640;8.106;2023-04-24T17:16:51;273.63;;;151.67;;
10633;SDS011;5365;51.640;8.106;2023-04-24T17:19:52;282.80;;;169.03;;
10633;SDS011;5365;51.640;8.106;2023-04-24T17:22:52;285.67;;;161.10;;
10633;SDS011;5365;51.640;8.106;2023-04-24T17:25:53;283.10;;;171.00;;
10633;SDS011;5365;51.640;8.106;2023-04-24T17:28:53;274.37;;;142.50;;
10633;SDS011;5365;51.640;8.106;2023-04-24T17:31:54;276.27;;;146.00;;
10633;SDS011;5365;51.640;8.106;2023-04-24T17:34:54;281.30;;;160.20;;
10633;SDS011;5365;51.640;8.106;2023-04-24T17:37:54;260.20;;;116.97;;
10633;SDS011;5365;51.640;8.106;2023-04-24T17:40:55;280.93;;;154.80;;
10633;SDS011;5365;51.640;8.106;2023-04-24T17:43:56;282.07;;;164.97;;